Terminal Aerodrome Forecast
Issued by NWS

Home | Current Version | Previous Version | Text Only | Print | Product List | Glossary On
Versions: 1 2 3 4 5 6 7 8 9 10 11 12 13
894
FTUS45 KTFX 231753 CCA
TAFHLN
TAF COR
KHLN 231753Z 2318/2418 VRB03KT P6SM SKC
      TEMPO 2318/2321 BKN050
     FM240600 VRB05KT P6SM SCT090
     FM241500 VRB05KT P6SM BKN090=

USA.gov is the U.S. government's official web portal to all federal, state and local government web resources and services.